This is the latest recevied weather packets stored in our database for station/object LA3SP-1. If no packets are shown the sender has not sent any weather packets the latest 1 day(s).
| Time | Temp. | Humidity | Pressure | Rain* | Wind** | Luminosity | Snow |
|---|---|---|---|---|---|---|---|
| 1836274400 | 7.22° C | 76% | 1003.9 hPa | 0.51 mm | 1.79 m/s, 292° | - | - |
| 1836274251 | 7.22° C | 76% | 1003.8 hPa | 0.51 mm | 0.45 m/s, 292° | - | - |
| 1778086515 | 2.22° C | 53% | 1007 hPa | 0 mm | 0 m/s | - | - |
| 1778085914 | 2.22° C | 53% | 1007 hPa | 0 mm | 1.79 m/s, 157° | - | - |
| 1778085312 | 2.78° C | 52% | 1007.1 hPa | 0 mm | 4.47 m/s, 292° | - | - |
| 1778084711 | 2.78° C | 52% | 1007 hPa | 0 mm | 1.79 m/s, 180° | - | - |
| 1778084109 | 2.78° C | 52% | 1007.2 hPa | 0 mm | 0 m/s | - | - |
| 1778083489 | 3.89° C | 53% | 1007.3 hPa | 0 mm | 0 m/s | - | - |
| 1778082907 | 3.33° C | 52% | 1007.2 hPa | 0 mm | 2.24 m/s, 135° | - | - |
| 1778082305 | 3.33° C | 52% | 1007.1 hPa | 0 mm | 1.34 m/s, 270° | - | - |
| 1778081704 | 3.89° C | 53% | 1007.3 hPa | 0 mm | 0 m/s | - | - |
| 1778081274 | 3.33° C | 50% | 1007 hPa | 0 mm | 0 m/s | - | - |
| 1778080502 | 3.33° C | 50% | 1007.1 hPa | 0 mm | 1.79 m/s, 202° | - | - |
| 1778079900 | 3.33° C | 50% | 1007 hPa | 0 mm | 0 m/s | - | - |
| 1778079299 | 4.44° C | 47% | 1007 hPa | 0 mm | 2.68 m/s, 247° | - | - |
| 1778078697 | 4.44° C | 47% | 1007.2 hPa | 0 mm | 2.24 m/s, 247° | - | - |
| 1778078096 | 5° C | 46% | 1007.2 hPa | 0 mm | 0 m/s | - | - |
| 1778077494 | 5° C | 46% | 1007.2 hPa | 0 mm | 1.34 m/s, 270° | - | - |
| 1778076893 | 5° C | 45% | 1007.3 hPa | 0 mm | 1.79 m/s, 270° | - | - |
| 1778075690 | 5° C | 41% | 1007.1 hPa | 0 mm | 0.45 m/s, 247° | - | - |
| 1778075089 | 5° C | 41% | 1007.2 hPa | 0 mm | 2.24 m/s, 292° | - | - |
| 1778074487 | 6.11° C | 41% | 1007 hPa | 0 mm | 0 m/s | - | - |
| 1778073886 | 7.78° C | 40% | 1007.2 hPa | 0 mm | 2.68 m/s, 247° | - | - |
| 1778073284 | 8.33° C | 44% | 1007.1 hPa | 0 mm | 0 m/s | - | - |
| 1778072683 | 7.78° C | 45% | 1007.2 hPa | 0 mm | 1.34 m/s, 225° | - | - |
* Rain latest 24 hours (hover to see other rain measurements)
** Current wind speed in m/s (hover to see current wind gust speed)